sensor_id;sensor_type;location;lat;lon;timestamp;P1;durP1;ratioP1;P2;durP2;ratioP2
72785;SDS011;60902;53.876;10.674;2023-05-14T00:00:02;8.85;;;5.22;;
72785;SDS011;60902;53.876;10.674;2023-05-14T00:00:14;8.18;;;4.97;;
72785;SDS011;60902;53.876;10.674;2023-05-14T00:00:26;7.95;;;5.32;;
72785;SDS011;60902;53.876;10.674;2023-05-14T00:00:37;8.00;;;5.43;;
72785;SDS011;60902;53.876;10.674;2023-05-14T00:00:48;7.72;;;5.30;;
72785;SDS011;60902;53.876;10.674;2023-05-14T00:00:58;7.97;;;5.30;;
72785;SDS011;60902;53.876;10.674;2023-05-14T00:01:09;8.50;;;5.30;;
72785;SDS011;60902;53.876;10.674;2023-05-14T00:01:21;9.30;;;5.50;;
72785;SDS011;60902;53.876;10.674;2023-05-14T00:01:31;9.30;;;5.18;;
72785;SDS011;60902;53.876;10.674;2023-05-14T00:01:43;8.35;;;4.93;;
72785;SDS011;60902;53.876;10.674;2023-05-14T00:01:55;8.05;;;4.88;;
72785;SDS011;60902;53.876;10.674;2023-05-14T00:02:06;7.47;;;5.00;;
72785;SDS011;60902;53.876;10.674;2023-05-14T00:02:17;7.47;;;5.05;;
72785;SDS011;60902;53.876;10.674;2023-05-14T00:02:28;8.07;;;4.97;;
72785;SDS011;60902;53.876;10.674;2023-05-14T00:02:39;9.15;;;5.05;;
72785;SDS011;60902;53.876;10.674;2023-05-14T00:02:50;9.02;;;4.90;;
72785;SDS011;60902;53.876;10.674;2023-05-14T00:03:01;8.50;;;4.85;;
72785;SDS011;60902;53.876;10.674;2023-05-14T00:03:12;8.07;;;4.65;;
72785;SDS011;60902;53.876;10.674;2023-05-14T00:03:24;8.65;;;4.80;;
72785;SDS011;60902;53.876;10.674;2023-05-14T00:03:35;9.50;;;5.07;;
72785;SDS011;60902;53.876;10.674;2023-05-14T00:03:50;9.20;;;5.30;;
72785;SDS011;60902;53.876;10.674;2023-05-14T00:04:00;8.85;;;5.13;;
72785;SDS011;60902;53.876;10.674;2023-05-14T00:04:11;7.80;;;4.97;;
72785;SDS011;60902;53.876;10.674;2023-05-14T00:04:22;8.05;;;5.32;;
72785;SDS011;60902;53.876;10.674;2023-05-14T00:04:33;8.73;;;5.72;;
72785;SDS011;60902;53.876;10.674;2023-05-14T00:04:44;9.02;;;6.07;;
72785;SDS011;60902;53.876;10.674;2023-05-14T00:04:55;8.93;;;5.72;;
72785;SDS011;60902;53.876;10.674;2023-05-14T00:05:07;8.55;;;5.55;;
72785;SDS011;60902;53.876;10.674;2023-05-14T00:05:19;8.55;;;5.47;;
72785;SDS011;60902;53.876;10.674;2023-05-14T00:05:30;8.52;;;5.22;;
72785;SDS011;60902;53.876;10.674;2023-05-14T00:05:41;8.93;;;5.15;;
72785;SDS011;60902;53.876;10.674;2023-05-14T00:05:52;8.38;;;5.05;;
72785;SDS011;60902;53.876;10.674;2023-05-14T00:06:03;7.53;;;4.87;;
72785;SDS011;60902;53.876;10.674;2023-05-14T00:06:14;7.25;;;4.63;;
72785;SDS011;60902;53.876;10.674;2023-05-14T00:06:25;7.85;;;4.65;;
72785;SDS011;60902;53.876;10.674;2023-05-14T00:06:37;8.18;;;5.10;;
72785;SDS011;60902;53.876;10.674;2023-05-14T00:06:48;8.88;;;5.43;;
72785;SDS011;60902;53.876;10.674;2023-05-14T00:06:59;8.50;;;5.43;;
72785;SDS011;60902;53.876;10.674;2023-05-14T00:07:10;8.67;;;5.47;;
72785;SDS011;60902;53.876;10.674;2023-05-14T00:07:20;7.95;;;5.40;;
72785;SDS011;60902;53.876;10.674;2023-05-14T00:07:32;8.02;;;5.30;;
72785;SDS011;60902;53.876;10.674;2023-05-14T00:07:43;7.22;;;5.20;;
72785;SDS011;60902;53.876;10.674;2023-05-14T00:07:54;7.85;;;5.30;;
72785;SDS011;60902;53.876;10.674;2023-05-14T00:08:04;8.45;;;5.22;;
72785;SDS011;60902;53.876;10.674;2023-05-14T00:08:16;9.02;;;5.57;;
72785;SDS011;60902;53.876;10.674;2023-05-14T00:08:27;8.35;;;5.55;;
72785;SDS011;60902;53.876;10.674;2023-05-14T00:08:38;7.72;;;5.22;;
72785;SDS011;60902;53.876;10.674;2023-05-14T00:08:49;8.40;;;5.47;;
72785;SDS011;60902;53.876;10.674;2023-05-14T00:09:00;9.10;;;5.68;;
72785;SDS011;60902;53.876;10.674;2023-05-14T00:09:11;10.00;;;5.72;;
72785;SDS011;60902;53.876;10.674;2023-05-14T00:09:22;8.77;;;5.40;;
72785;SDS011;60902;53.876;10.674;2023-05-14T00:09:33;8.60;;;5.20;;
72785;SDS011;60902;53.876;10.674;2023-05-14T00:09:45;7.75;;;5.00;;
72785;SDS011;60902;53.876;10.674;2023-05-14T00:09:56;8.75;;;4.93;;
72785;SDS011;60902;53.876;10.674;2023-05-14T00:10:07;8.77;;;5.00;;
72785;SDS011;60902;53.876;10.674;2023-05-14T00:10:19;9.38;;;5.00;;
72785;SDS011;60902;53.876;10.674;2023-05-14T00:10:30;9.48;;;5.10;;
72785;SDS011;60902;53.876;10.674;2023-05-14T00:10:41;9.25;;;5.43;;
72785;SDS011;60902;53.876;10.674;2023-05-14T00:10:52;9.18;;;5.32;;
72785;SDS011;60902;53.876;10.674;2023-05-14T00:11:03;8.52;;;5.50;;
72785;SDS011;60902;53.876;10.674;2023-05-14T00:11:17;8.23;;;5.47;;
72785;SDS011;60902;53.876;10.674;2023-05-14T00:11:28;8.57;;;5.68;;
72785;SDS011;60902;53.876;10.674;2023-05-14T00:11:39;8.63;;;5.88;;
72785;SDS011;60902;53.876;10.674;2023-05-14T00:11:50;7.82;;;5.72;;
72785;SDS011;60902;53.876;10.674;2023-05-14T00:12:01;8.55;;;5.60;;
72785;SDS011;60902;53.876;10.674;2023-05-14T00:12:13;9.43;;;5.63;;
72785;SDS011;60902;53.876;10.674;2023-05-14T00:12:24;9.50;;;5.35;;
72785;SDS011;60902;53.876;10.674;2023-05-14T00:12:35;9.73;;;5.40;;
72785;SDS011;60902;53.876;10.674;2023-05-14T00:12:47;9.80;;;5.43;;
72785;SDS011;60902;53.876;10.674;2023-05-14T00:12:58;9.87;;;5.50;;
72785;SDS011;60902;53.876;10.674;2023-05-14T00:13:09;8.77;;;5.38;;
72785;SDS011;60902;53.876;10.674;2023-05-14T00:13:19;8.98;;;5.15;;
72785;SDS011;60902;53.876;10.674;2023-05-14T00:13:30;9.40;;;5.00;;
72785;SDS011;60902;53.876;10.674;2023-05-14T00:13:41;9.88;;;5.13;;
72785;SDS011;60902;53.876;10.674;2023-05-14T00:13:52;8.53;;;5.27;;
72785;SDS011;60902;53.876;10.674;2023-05-14T00:14:03;8.18;;;5.22;;
72785;SDS011;60902;53.876;10.674;2023-05-14T00:14:15;7.70;;;5.00;;
72785;SDS011;60902;53.876;10.674;2023-05-14T00:14:26;8.13;;;5.13;;
72785;SDS011;60902;53.876;10.674;2023-05-14T00:14:37;8.20;;;5.30;;
72785;SDS011;60902;53.876;10.674;2023-05-14T00:14:48;8.45;;;5.30;;
72785;SDS011;60902;53.876;10.674;2023-05-14T00:15:00;8.27;;;5.30;;
72785;SDS011;60902;53.876;10.674;2023-05-14T00:15:11;8.25;;;5.20;;
72785;SDS011;60902;53.876;10.674;2023-05-14T00:15:22;8.77;;;5.07;;
72785;SDS011;60902;53.876;10.674;2023-05-14T00:15:33;9.07;;;5.10;;
72785;SDS011;60902;53.876;10.674;2023-05-14T00:15:45;8.70;;;5.32;;
72785;SDS011;60902;53.876;10.674;2023-05-14T00:15:56;8.25;;;5.50;;
72785;SDS011;60902;53.876;10.674;2023-05-14T00:16:07;8.18;;;5.40;;
72785;SDS011;60902;53.876;10.674;2023-05-14T00:16:17;9.10;;;5.70;;
72785;SDS011;60902;53.876;10.674;2023-05-14T00:16:28;9.52;;;5.70;;
72785;SDS011;60902;53.876;10.674;2023-05-14T00:16:39;8.73;;;5.60;;
72785;SDS011;60902;53.876;10.674;2023-05-14T00:16:50;8.70;;;5.30;;
72785;SDS011;60902;53.876;10.674;2023-05-14T00:17:01;9.30;;;5.43;;
72785;SDS011;60902;53.876;10.674;2023-05-14T00:17:13;9.40;;;5.45;;
72785;SDS011;60902;53.876;10.674;2023-05-14T00:17:24;9.55;;;5.60;;
72785;SDS011;60902;53.876;10.674;2023-05-14T00:17:35;9.52;;;5.50;;
72785;SDS011;60902;53.876;10.674;2023-05-14T00:17:46;9.57;;;5.55;;
72785;SDS011;60902;53.876;10.674;2023-05-14T00:17:57;8.55;;;5.72;;
72785;SDS011;60902;53.876;10.674;2023-05-14T00:18:08;8.68;;;5.60;;
72785;SDS011;60902;53.876;10.674;2023-05-14T00:18:21;9.68;;;5.47;;
72785;SDS011;60902;53.876;10.674;2023-05-14T00:18:32;10.07;;;5.10;;
72785;SDS011;60902;53.876;10.674;2023-05-14T00:18:44;8.55;;;5.00;;
72785;SDS011;60902;53.876;10.674;2023-05-14T00:18:55;8.23;;;4.93;;
72785;SDS011;60902;53.876;10.674;2023-05-14T00:19:06;7.93;;;5.43;;
72785;SDS011;60902;53.876;10.674;2023-05-14T00:19:17;8.70;;;5.78;;
72785;SDS011;60902;53.876;10.674;2023-05-14T00:19:28;9.02;;;5.88;;
72785;SDS011;60902;53.876;10.674;2023-05-14T00:19:39;9.15;;;5.80;;
72785;SDS011;60902;53.876;10.674;2023-05-14T00:19:51;8.35;;;5.63;;
72785;SDS011;60902;53.876;10.674;2023-05-14T00:20:02;8.13;;;5.43;;
72785;SDS011;60902;53.876;10.674;2023-05-14T00:20:16;9.40;;;5.70;;
72785;SDS011;60902;53.876;10.674;2023-05-14T00:20:27;9.73;;;5.65;;
72785;SDS011;60902;53.876;10.674;2023-05-14T00:20:38;9.80;;;5.90;;
72785;SDS011;60902;53.876;10.674;2023-05-14T00:20:50;9.15;;;5.72;;
72785;SDS011;60902;53.876;10.674;2023-05-14T00:21:03;10.60;;;5.82;;
72785;SDS011;60902;53.876;10.674;2023-05-14T00:21:14;10.73;;;5.85;;
72785;SDS011;60902;53.876;10.674;2023-05-14T00:21:26;9.07;;;5.55;;
72785;SDS011;60902;53.876;10.674;2023-05-14T00:21:37;7.95;;;5.35;;
72785;SDS011;60902;53.876;10.674;2023-05-14T00:21:49;8.38;;;5.45;;
72785;SDS011;60902;53.876;10.674;2023-05-14T00:22:00;8.68;;;5.85;;
72785;SDS011;60902;53.876;10.674;2023-05-14T00:22:11;7.93;;;5.55;;
72785;SDS011;60902;53.876;10.674;2023-05-14T00:22:22;7.75;;;5.38;;
72785;SDS011;60902;53.876;10.674;2023-05-14T00:22:33;7.90;;;5.63;;
72785;SDS011;60902;53.876;10.674;2023-05-14T00:22:46;8.65;;;5.63;;
72785;SDS011;60902;53.876;10.674;2023-05-14T00:22:57;9.00;;;5.70;;
72785;SDS011;60902;53.876;10.674;2023-05-14T00:23:07;8.63;;;5.50;;
72785;SDS011;60902;53.876;10.674;2023-05-14T00:23:20;8.27;;;5.70;;
72785;SDS011;60902;53.876;10.674;2023-05-14T00:23:31;8.23;;;5.67;;
72785;SDS011;60902;53.876;10.674;2023-05-14T00:23:42;8.02;;;5.45;;
72785;SDS011;60902;53.876;10.674;2023-05-14T00:23:52;8.20;;;5.22;;
72785;SDS011;60902;53.876;10.674;2023-05-14T00:24:03;8.10;;;5.25;;
72785;SDS011;60902;53.876;10.674;2023-05-14T00:24:15;8.25;;;5.55;;
72785;SDS011;60902;53.876;10.674;2023-05-14T00:24:26;8.18;;;5.47;;
72785;SDS011;60902;53.876;10.674;2023-05-14T00:24:37;8.30;;;5.50;;
72785;SDS011;60902;53.876;10.674;2023-05-14T00:24:48;8.93;;;5.35;;
72785;SDS011;60902;53.876;10.674;2023-05-14T00:24:59;8.80;;;5.10;;
72785;SDS011;60902;53.876;10.674;2023-05-14T00:25:10;9.48;;;5.40;;
72785;SDS011;60902;53.876;10.674;2023-05-14T00:25:21;8.80;;;5.68;;
72785;SDS011;60902;53.876;10.674;2023-05-14T00:25:32;8.95;;;6.07;;
72785;SDS011;60902;53.876;10.674;2023-05-14T00:25:43;8.73;;;5.77;;
72785;SDS011;60902;53.876;10.674;2023-05-14T00:25:54;9.70;;;5.80;;
72785;SDS011;60902;53.876;10.674;2023-05-14T00:26:05;9.70;;;5.72;;
72785;SDS011;60902;53.876;10.674;2023-05-14T00:26:16;9.65;;;5.78;;
72785;SDS011;60902;53.876;10.674;2023-05-14T00:26:29;8.52;;;5.75;;
72785;SDS011;60902;53.876;10.674;2023-05-14T00:26:40;8.23;;;5.53;;
72785;SDS011;60902;53.876;10.674;2023-05-14T00:26:50;8.50;;;5.43;;
72785;SDS011;60902;53.876;10.674;2023-05-14T00:27:01;8.90;;;5.23;;
72785;SDS011;60902;53.876;10.674;2023-05-14T00:27:12;10.13;;;5.57;;
72785;SDS011;60902;53.876;10.674;2023-05-14T00:27:23;9.70;;;5.50;;
72785;SDS011;60902;53.876;10.674;2023-05-14T00:27:35;9.43;;;5.55;;
72785;SDS011;60902;53.876;10.674;2023-05-14T00:27:47;8.55;;;5.75;;
72785;SDS011;60902;53.876;10.674;2023-05-14T00:27:58;8.77;;;5.95;;
72785;SDS011;60902;53.876;10.674;2023-05-14T00:28:09;8.68;;;5.72;;
72785;SDS011;60902;53.876;10.674;2023-05-14T00:28:20;8.40;;;5.75;;
72785;SDS011;60902;53.876;10.674;2023-05-14T00:28:31;8.45;;;5.82;;
72785;SDS011;60902;53.876;10.674;2023-05-14T00:28:42;8.10;;;5.45;;
72785;SDS011;60902;53.876;10.674;2023-05-14T00:28:53;7.93;;;5.33;;
72785;SDS011;60902;53.876;10.674;2023-05-14T00:29:03;8.30;;;5.20;;
72785;SDS011;60902;53.876;10.674;2023-05-14T00:29:15;7.90;;;5.13;;
72785;SDS011;60902;53.876;10.674;2023-05-14T00:29:27;8.48;;;5.30;;
72785;SDS011;60902;53.876;10.674;2023-05-14T00:29:38;9.32;;;5.80;;
72785;SDS011;60902;53.876;10.674;2023-05-14T00:29:49;9.23;;;5.80;;
72785;SDS011;60902;53.876;10.674;2023-05-14T00:30:01;8.85;;;5.60;;
72785;SDS011;60902;53.876;10.674;2023-05-14T00:30:13;8.05;;;5.25;;
72785;SDS011;60902;53.876;10.674;2023-05-14T00:30:24;7.82;;;5.50;;
72785;SDS011;60902;53.876;10.674;2023-05-14T00:30:36;7.97;;;5.68;;
72785;SDS011;60902;53.876;10.674;2023-05-14T00:30:46;8.20;;;5.43;;
72785;SDS011;60902;53.876;10.674;2023-05-14T00:31:00;8.60;;;5.28;;
72785;SDS011;60902;53.876;10.674;2023-05-14T00:31:10;9.45;;;5.50;;
72785;SDS011;60902;53.876;10.674;2023-05-14T00:31:21;8.98;;;5.50;;
72785;SDS011;60902;53.876;10.674;2023-05-14T00:31:32;9.18;;;5.60;;
72785;SDS011;60902;53.876;10.674;2023-05-14T00:31:43;8.30;;;5.55;;
72785;SDS011;60902;53.876;10.674;2023-05-14T00:31:54;8.07;;;5.65;;
72785;SDS011;60902;53.876;10.674;2023-05-14T00:32:06;7.45;;;5.63;;
72785;SDS011;60902;53.876;10.674;2023-05-14T00:32:18;8.63;;;6.03;;
72785;SDS011;60902;53.876;10.674;2023-05-14T00:32:30;8.95;;;5.72;;
72785;SDS011;60902;53.876;10.674;2023-05-14T00:32:41;8.35;;;5.40;;
72785;SDS011;60902;53.876;10.674;2023-05-14T00:32:52;7.47;;;5.35;;
72785;SDS011;60902;53.876;10.674;2023-05-14T00:33:03;8.20;;;5.53;;
72785;SDS011;60902;53.876;10.674;2023-05-14T00:33:14;8.52;;;5.68;;
72785;SDS011;60902;53.876;10.674;2023-05-14T00:33:25;8.80;;;5.50;;
72785;SDS011;60902;53.876;10.674;2023-05-14T00:33:36;8.05;;;5.45;;
72785;SDS011;60902;53.876;10.674;2023-05-14T00:33:47;8.15;;;5.55;;
72785;SDS011;60902;53.876;10.674;2023-05-14T00:33:59;8.15;;;5.68;;
72785;SDS011;60902;53.876;10.674;2023-05-14T00:34:10;8.20;;;5.68;;
72785;SDS011;60902;53.876;10.674;2023-05-14T00:34:21;8.68;;;5.75;;
72785;SDS011;60902;53.876;10.674;2023-05-14T00:34:32;8.50;;;5.82;;
72785;SDS011;60902;53.876;10.674;2023-05-14T00:34:43;8.20;;;5.35;;
72785;SDS011;60902;53.876;10.674;2023-05-14T00:34:55;7.88;;;5.00;;
72785;SDS011;60902;53.876;10.674;2023-05-14T00:35:06;8.27;;;5.32;;
72785;SDS011;60902;53.876;10.674;2023-05-14T00:35:17;8.38;;;5.53;;
72785;SDS011;60902;53.876;10.674;2023-05-14T00:35:30;9.20;;;5.88;;
72785;SDS011;60902;53.876;10.674;2023-05-14T00:35:44;9.23;;;5.80;;
72785;SDS011;60902;53.876;10.674;2023-05-14T00:35:55;9.77;;;5.85;;
72785;SDS011;60902;53.876;10.674;2023-05-14T00:36:07;9.77;;;5.90;;
72785;SDS011;60902;53.876;10.674;2023-05-14T00:36:18;9.25;;;6.03;;
72785;SDS011;60902;53.876;10.674;2023-05-14T00:36:29;8.60;;;5.68;;
72785;SDS011;60902;53.876;10.674;2023-05-14T00:36:40;8.75;;;5.60;;
72785;SDS011;60902;53.876;10.674;2023-05-14T00:36:52;8.80;;;5.50;;
72785;SDS011;60902;53.876;10.674;2023-05-14T00:37:03;8.95;;;5.50;;
72785;SDS011;60902;53.876;10.674;2023-05-14T00:37:14;8.82;;;5.45;;
72785;SDS011;60902;53.876;10.674;2023-05-14T00:37:25;8.50;;;5.20;;
72785;SDS011;60902;53.876;10.674;2023-05-14T00:37:36;8.90;;;5.10;;
72785;SDS011;60902;53.876;10.674;2023-05-14T00:37:47;9.77;;;5.15;;
72785;SDS011;60902;53.876;10.674;2023-05-14T00:37:58;9.95;;;5.35;;
72785;SDS011;60902;53.876;10.674;2023-05-14T00:38:09;9.83;;;5.50;;
72785;SDS011;60902;53.876;10.674;2023-05-14T00:38:25;8.70;;;5.45;;
72785;SDS011;60902;53.876;10.674;2023-05-14T00:38:37;8.02;;;5.65;;
72785;SDS011;60902;53.876;10.674;2023-05-14T00:38:48;7.80;;;5.78;;
72785;SDS011;60902;53.876;10.674;2023-05-14T00:38:59;7.78;;;5.55;;
72785;SDS011;60902;53.876;10.674;2023-05-14T00:39:10;7.93;;;5.40;;
72785;SDS011;60902;53.876;10.674;2023-05-14T00:39:21;8.45;;;5.20;;
72785;SDS011;60902;53.876;10.674;2023-05-14T00:39:32;8.45;;;5.30;;
72785;SDS011;60902;53.876;10.674;2023-05-14T00:39:43;8.70;;;5.18;;
72785;SDS011;60902;53.876;10.674;2023-05-14T00:39:54;8.57;;;5.32;;
72785;SDS011;60902;53.876;10.674;2023-05-14T00:40:06;8.75;;;5.30;;
72785;SDS011;60902;53.876;10.674;2023-05-14T00:40:20;8.15;;;5.47;;
72785;SDS011;60902;53.876;10.674;2023-05-14T00:40:35;9.50;;;5.50;;
72785;SDS011;60902;53.876;10.674;2023-05-14T00:40:46;10.93;;;5.80;;
72785;SDS011;60902;53.876;10.674;2023-05-14T00:41:00;10.00;;;6.20;;
72785;SDS011;60902;53.876;10.674;2023-05-14T00:41:11;8.65;;;6.25;;
72785;SDS011;60902;53.876;10.674;2023-05-14T00:41:22;8.23;;;5.53;;
72785;SDS011;60902;53.876;10.674;2023-05-14T00:41:33;9.07;;;5.57;;
72785;SDS011;60902;53.876;10.674;2023-05-14T00:41:45;8.82;;;5.60;;
72785;SDS011;60902;53.876;10.674;2023-05-14T00:41:56;8.93;;;5.55;;
72785;SDS011;60902;53.876;10.674;2023-05-14T00:42:07;9.43;;;5.70;;
72785;SDS011;60902;53.876;10.674;2023-05-14T00:42:18;9.68;;;5.32;;
72785;SDS011;60902;53.876;10.674;2023-05-14T00:42:29;8.85;;;5.50;;
72785;SDS011;60902;53.876;10.674;2023-05-14T00:42:40;8.53;;;5.63;;
72785;SDS011;60902;53.876;10.674;2023-05-14T00:42:51;8.68;;;5.85;;
72785;SDS011;60902;53.876;10.674;2023-05-14T00:43:02;9.45;;;5.78;;
72785;SDS011;60902;53.876;10.674;2023-05-14T00:43:14;9.45;;;5.50;;
72785;SDS011;60902;53.876;10.674;2023-05-14T00:43:25;8.77;;;5.18;;
72785;SDS011;60902;53.876;10.674;2023-05-14T00:43:36;7.93;;;5.03;;
72785;SDS011;60902;53.876;10.674;2023-05-14T00:43:47;8.23;;;5.20;;
72785;SDS011;60902;53.876;10.674;2023-05-14T00:43:58;8.40;;;5.22;;
72785;SDS011;60902;53.876;10.674;2023-05-14T00:44:09;8.10;;;5.28;;
72785;SDS011;60902;53.876;10.674;2023-05-14T00:44:19;8.30;;;5.32;;
72785;SDS011;60902;53.876;10.674;2023-05-14T00:44:30;8.73;;;5.53;;
72785;SDS011;60902;53.876;10.674;2023-05-14T00:44:42;9.68;;;5.63;;
72785;SDS011;60902;53.876;10.674;2023-05-14T00:44:53;9.48;;;5.80;;
72785;SDS011;60902;53.876;10.674;2023-05-14T00:45:06;8.55;;;5.70;;
72785;SDS011;60902;53.876;10.674;2023-05-14T00:45:18;8.13;;;5.63;;
72785;SDS011;60902;53.876;10.674;2023-05-14T00:45:29;8.55;;;5.53;;
72785;SDS011;60902;53.876;10.674;2023-05-14T00:45:40;8.35;;;5.18;;
72785;SDS011;60902;53.876;10.674;2023-05-14T00:45:52;8.20;;;5.10;;
72785;SDS011;60902;53.876;10.674;2023-05-14T00:46:03;7.28;;;4.72;;
72785;SDS011;60902;53.876;10.674;2023-05-14T00:46:16;7.32;;;4.88;;
72785;SDS011;60902;53.876;10.674;2023-05-14T00:46:27;7.35;;;4.93;;
72785;SDS011;60902;53.876;10.674;2023-05-14T00:46:38;7.35;;;4.97;;
72785;SDS011;60902;53.876;10.674;2023-05-14T00:46:49;8.00;;;5.17;;
72785;SDS011;60902;53.876;10.674;2023-05-14T00:47:00;8.32;;;5.30;;
72785;SDS011;60902;53.876;10.674;2023-05-14T00:47:11;8.15;;;5.05;;
72785;SDS011;60902;53.876;10.674;2023-05-14T00:47:22;7.50;;;5.03;;
72785;SDS011;60902;53.876;10.674;2023-05-14T00:47:33;8.70;;;5.10;;
72785;SDS011;60902;53.876;10.674;2023-05-14T00:47:45;9.52;;;5.30;;
72785;SDS011;60902;53.876;10.674;2023-05-14T00:47:58;9.02;;;5.32;;
72785;SDS011;60902;53.876;10.674;2023-05-14T00:48:09;8.70;;;5.40;;
72785;SDS011;60902;53.876;10.674;2023-05-14T00:48:21;9.82;;;5.43;;
72785;SDS011;60902;53.876;10.674;2023-05-14T00:48:32;9.73;;;5.53;;
72785;SDS011;60902;53.876;10.674;2023-05-14T00:48:44;9.15;;;5.40;;
72785;SDS011;60902;53.876;10.674;2023-05-14T00:48:55;8.23;;;5.43;;
72785;SDS011;60902;53.876;10.674;2023-05-14T00:49:07;8.73;;;5.47;;
72785;SDS011;60902;53.876;10.674;2023-05-14T00:49:18;8.68;;;5.60;;
72785;SDS011;60902;53.876;10.674;2023-05-14T00:49:30;8.27;;;5.45;;
72785;SDS011;60902;53.876;10.674;2023-05-14T00:49:41;8.73;;;5.75;;
72785;SDS011;60902;53.876;10.674;2023-05-14T00:49:54;9.48;;;5.85;;
72785;SDS011;60902;53.876;10.674;2023-05-14T00:50:05;8.88;;;5.30;;
72785;SDS011;60902;53.876;10.674;2023-05-14T00:50:17;9.98;;;5.45;;
72785;SDS011;60902;53.876;10.674;2023-05-14T00:50:28;10.02;;;5.95;;
72785;SDS011;60902;53.876;10.674;2023-05-14T00:50:40;8.82;;;5.97;;
72785;SDS011;60902;53.876;10.674;2023-05-14T00:50:51;9.10;;;5.90;;
72785;SDS011;60902;53.876;10.674;2023-05-14T00:51:02;8.27;;;5.35;;
72785;SDS011;60902;53.876;10.674;2023-05-14T00:51:13;8.27;;;5.28;;
72785;SDS011;60902;53.876;10.674;2023-05-14T00:51:27;8.38;;;5.32;;
72785;SDS011;60902;53.876;10.674;2023-05-14T00:51:38;9.52;;;5.32;;
72785;SDS011;60902;53.876;10.674;2023-05-14T00:51:50;9.73;;;5.55;;
72785;SDS011;60902;53.876;10.674;2023-05-14T00:52:02;8.88;;;5.00;;
72785;SDS011;60902;53.876;10.674;2023-05-14T00:52:14;7.80;;;4.97;;
72785;SDS011;60902;53.876;10.674;2023-05-14T00:52:26;7.88;;;4.97;;
72785;SDS011;60902;53.876;10.674;2023-05-14T00:52:37;9.63;;;5.30;;
72785;SDS011;60902;53.876;10.674;2023-05-14T00:52:48;9.77;;;5.32;;
72785;SDS011;60902;53.876;10.674;2023-05-14T00:53:00;8.95;;;5.25;;
72785;SDS011;60902;53.876;10.674;2023-05-14T00:53:11;7.53;;;4.95;;
72785;SDS011;60902;53.876;10.674;2023-05-14T00:53:23;7.75;;;4.95;;
72785;SDS011;60902;53.876;10.674;2023-05-14T00:53:37;8.25;;;5.25;;
72785;SDS011;60902;53.876;10.674;2023-05-14T00:53:49;7.90;;;5.20;;
72785;SDS011;60902;53.876;10.674;2023-05-14T00:54:00;8.60;;;5.20;;
72785;SDS011;60902;53.876;10.674;2023-05-14T00:54:12;8.43;;;5.00;;
72785;SDS011;60902;53.876;10.674;2023-05-14T00:54:23;8.07;;;4.82;;
72785;SDS011;60902;53.876;10.674;2023-05-14T00:54:36;7.60;;;4.88;;
72785;SDS011;60902;53.876;10.674;2023-05-14T00:54:47;9.13;;;5.50;;
72785;SDS011;60902;53.876;10.674;2023-05-14T00:54:58;9.60;;;5.90;;
72785;SDS011;60902;53.876;10.674;2023-05-14T00:55:12;9.73;;;5.57;;
72785;SDS011;60902;53.876;10.674;2023-05-14T00:55:25;9.07;;;5.32;;
72785;SDS011;60902;53.876;10.674;2023-05-14T00:55:39;9.25;;;5.43;;
72785;SDS011;60902;53.876;10.674;2023-05-14T00:55:51;8.15;;;5.20;;
72785;SDS011;60902;53.876;10.674;2023-05-14T00:56:02;8.65;;;5.38;;
72785;SDS011;60902;53.876;10.674;2023-05-14T00:56:14;9.40;;;5.35;;
72785;SDS011;60902;53.876;10.674;2023-05-14T00:56:26;9.57;;;5.32;;
72785;SDS011;60902;53.876;10.674;2023-05-14T00:56:38;8.93;;;5.30;;
72785;SDS011;60902;53.876;10.674;2023-05-14T00:56:49;9.13;;;5.35;;
72785;SDS011;60902;53.876;10.674;2023-05-14T00:57:01;9.07;;;5.43;;
72785;SDS011;60902;53.876;10.674;2023-05-14T00:57:13;9.23;;;5.50;;
72785;SDS011;60902;53.876;10.674;2023-05-14T00:57:24;8.07;;;5.40;;
72785;SDS011;60902;53.876;10.674;2023-05-14T00:57:35;7.47;;;5.03;;
72785;SDS011;60902;53.876;10.674;2023-05-14T00:57:48;7.93;;;5.15;;
72785;SDS011;60902;53.876;10.674;2023-05-14T00:57:59;8.10;;;5.55;;
72785;SDS011;60902;53.876;10.674;2023-05-14T00:58:12;7.38;;;5.55;;
72785;SDS011;60902;53.876;10.674;2023-05-14T00:58:23;7.38;;;5.60;;
72785;SDS011;60902;53.876;10.674;2023-05-14T00:58:35;7.45;;;5.03;;
72785;SDS011;60902;53.876;10.674;2023-05-14T00:58:46;7.68;;;5.05;;
72785;SDS011;60902;53.876;10.674;2023-05-14T00:58:57;8.60;;;5.18;;
72785;SDS011;60902;53.876;10.674;2023-05-14T00:59:07;8.40;;;5.25;;
72785;SDS011;60902;53.876;10.674;2023-05-14T00:59:18;8.27;;;5.10;;
72785;SDS011;60902;53.876;10.674;2023-05-14T00:59:29;7.60;;;5.07;;
72785;SDS011;60902;53.876;10.674;2023-05-14T00:59:42;7.40;;;4.63;;
72785;SDS011;60902;53.876;10.674;2023-05-14T00:59:54;7.57;;;4.70;;
72785;SDS011;60902;53.876;10.674;2023-05-14T01:00:08;6.93;;;4.72;;
72785;SDS011;60902;53.876;10.674;2023-05-14T01:00:20;7.00;;;4.97;;
72785;SDS011;60902;53.876;10.674;2023-05-14T01:00:31;7.50;;;5.07;;
72785;SDS011;60902;53.876;10.674;2023-05-14T01:00:42;7.55;;;5.05;;
72785;SDS011;60902;53.876;10.674;2023-05-14T01:00:53;8.07;;;5.68;;
72785;SDS011;60902;53.876;10.674;2023-05-14T01:01:04;8.68;;;5.65;;
72785;SDS011;60902;53.876;10.674;2023-05-14T01:01:16;8.73;;;5.30;;
72785;SDS011;60902;53.876;10.674;2023-05-14T01:01:27;7.68;;;5.18;;
72785;SDS011;60902;53.876;10.674;2023-05-14T01:01:38;7.75;;;5.30;;
72785;SDS011;60902;53.876;10.674;2023-05-14T01:01:49;7.72;;;5.55;;
72785;SDS011;60902;53.876;10.674;2023-05-14T01:02:00;7.80;;;5.50;;
72785;SDS011;60902;53.876;10.674;2023-05-14T01:02:11;7.80;;;5.63;;
72785;SDS011;60902;53.876;10.674;2023-05-14T01:02:22;7.80;;;5.20;;
72785;SDS011;60902;53.876;10.674;2023-05-14T01:02:33;7.80;;;4.90;;
72785;SDS011;60902;53.876;10.674;2023-05-14T01:02:45;7.47;;;4.68;;
72785;SDS011;60902;53.876;10.674;2023-05-14T01:02:55;7.27;;;4.63;;
72785;SDS011;60902;53.876;10.674;2023-05-14T01:03:10;8.00;;;4.80;;
72785;SDS011;60902;53.876;10.674;2023-05-14T01:03:21;8.00;;;4.88;;
72785;SDS011;60902;53.876;10.674;2023-05-14T01:03:32;7.90;;;4.97;;
72785;SDS011;60902;53.876;10.674;2023-05-14T01:03:43;6.97;;;4.97;;
72785;SDS011;60902;53.876;10.674;2023-05-14T01:03:54;7.28;;;4.78;;
72785;SDS011;60902;53.876;10.674;2023-05-14T01:04:06;8.23;;;4.85;;
72785;SDS011;60902;53.876;10.674;2023-05-14T01:04:20;8.52;;;5.05;;
72785;SDS011;60902;53.876;10.674;2023-05-14T01:04:31;7.15;;;4.53;;
72785;SDS011;60902;53.876;10.674;2023-05-14T01:04:44;6.68;;;4.35;;
72785;SDS011;60902;53.876;10.674;2023-05-14T01:04:55;6.57;;;4.45;;
72785;SDS011;60902;53.876;10.674;2023-05-14T01:05:07;6.80;;;4.72;;
72785;SDS011;60902;53.876;10.674;2023-05-14T01:05:18;7.53;;;5.03;;
72785;SDS011;60902;53.876;10.674;2023-05-14T01:05:32;8.40;;;5.55;;
72785;SDS011;60902;53.876;10.674;2023-05-14T01:05:52;10.93;;;5.20;;
72785;SDS011;60902;53.876;10.674;2023-05-14T01:06:13;8.10;;;4.90;;
72785;SDS011;60902;53.876;10.674;2023-05-14T01:06:30;7.95;;;5.13;;
72785;SDS011;60902;53.876;10.674;2023-05-14T01:06:50;7.87;;;4.97;;
72785;SDS011;60902;53.876;10.674;2023-05-14T01:07:09;7.07;;;4.60;;
72785;SDS011;60902;53.876;10.674;2023-05-14T01:07:28;7.63;;;5.07;;
72785;SDS011;60902;53.876;10.674;2023-05-14T01:07:45;8.13;;;5.25;;
72785;SDS011;60902;53.876;10.674;2023-05-14T01:08:20;7.95;;;5.10;;
72785;SDS011;60902;53.876;10.674;2023-05-14T01:08:39;8.02;;;4.65;;
72785;SDS011;60902;53.876;10.674;2023-05-14T01:09:00;8.23;;;4.43;;
72785;SDS011;60902;53.876;10.674;2023-05-14T01:09:19;8.15;;;4.70;;